Time;durP1;ratioP1;P1;durP2;ratioP2;P2;SDS_P1;SDS_P2;PMS_P1;PMS_P2;Temp;Humidity;BMP_temperature;BMP_pressure;BME280_temperature;BME280_humidity;BME280_pressure;Samples;Min_cycle;Max_cycle;Signal;HPM_P1;HPM_P2
2022/08/15 00:01:14;;;;;;;11.90;9.15;;;;;;;22.80;61.03;100195.16;5035039;28;20853;-74
2022/08/15 00:03:46;;;;;;;10.60;9.60;;;;;;;22.77;61.51;100184.88;5041183;28;20439;-81
2022/08/15 00:06:18;;;;;;;14.98;9.75;;;;;;;22.81;61.36;100186.13;5041601;28;20120;-81
2022/08/15 00:08:50;;;;;;;10.95;9.85;;;;;;;22.79;61.83;100188.16;5047156;28;20086;-80
2022/08/15 00:11:22;;;;;;;10.93;9.00;;;;;;;22.77;61.83;100190.22;5043246;28;20028;-81
2022/08/15 00:13:52;;;;;;;15.23;9.45;;;;;;;22.74;61.62;100201.38;5049003;28;20033;-81
2022/08/15 00:16:18;;;;;;;10.10;9.00;;;;;;;22.75;61.59;100198.47;5052276;28;20098;-81
2022/08/15 00:18:45;;;;;;;10.48;9.48;;;;;;;22.68;61.81;100192.31;5043769;28;20033;-75
2022/08/15 00:21:11;;;;;;;11.20;9.07;;;;;;;22.72;62.08;100190.84;5055659;28;20036;-82
2022/08/15 00:23:40;;;;;;;10.27;9.25;;;;;;;22.70;62.41;100197.47;5046505;28;20086;-82
2022/08/15 00:26:07;;;;;;;10.85;9.85;;;;;;;22.64;62.56;100198.31;5077367;28;20029;-82
2022/08/15 00:28:32;;;;;;;11.15;9.98;;;;;;;22.68;61.26;100197.69;5051582;28;20039;-81
2022/08/15 00:30:58;;;;;;;10.75;9.65;;;;;;;22.68;62.14;100202.22;5051047;28;20025;-79
2022/08/15 00:33:24;;;;;;;12.32;10.77;;;;;;;22.71;60.54;100196.44;5039792;28;20104;-82
2022/08/15 00:35:53;;;;;;;11.95;10.75;;;;;;;22.64;60.82;100195.63;5050223;28;20029;-81
2022/08/15 00:38:22;;;;;;;11.25;10.10;;;;;;;22.64;59.45;100184.88;5051106;28;20029;-81
2022/08/15 00:43:42;;;;;;;15.75;9.80;;;;;;;22.70;56.43;100195.59;5040285;28;20091;-81
2022/08/15 00:46:10;;;;;;;15.07;9.00;;;;;;;22.73;55.34;100191.69;5074579;28;20047;-81
2022/08/15 00:48:42;;;;;;;9.50;7.82;;;;;;;22.79;54.04;100197.03;5053795;28;20016;-81
2022/08/15 00:51:16;;;;;;;10.73;7.43;;;;;;;22.83;53.41;100194.00;5043100;28;20025;-81
2022/08/15 00:53:48;;;;;;;9.85;6.78;;;;;;;22.88;52.22;100189.63;5042284;28;20518;-82
2022/08/15 00:56:15;;;;;;;7.60;6.25;;;;;;;22.92;51.10;100190.88;5030189;28;20086;-74
2022/08/15 00:58:43;;;;;;;7.47;6.15;;;;;;;22.97;50.60;100196.44;5040727;28;20493;-74
2022/08/15 01:01:11;;;;;;;8.80;5.50;;;;;;;23.03;49.92;100205.50;5039205;28;20028;-74
2022/08/15 01:03:40;;;;;;;7.82;5.25;;;;;;;23.07;49.96;100202.16;5060846;28;20036;-75
2022/08/15 01:06:06;;;;;;;10.48;4.78;;;;;;;23.07;49.50;100199.50;5041423;28;20029;-75
2022/08/15 01:08:35;;;;;;;5.90;4.70;;;;;;;23.07;49.10;100202.16;5041614;28;20032;-75
2022/08/15 01:11:05;;;;;;;9.40;5.05;;;;;;;23.12;48.72;100199.69;5047589;28;20108;-75
2022/08/15 01:13:32;;;;;;;6.65;4.35;;;;;;;23.07;48.69;100193.28;5045673;28;20029;-75
2022/08/15 01:15:57;;;;;;;10.52;4.43;;;;;;;23.07;48.49;100191.44;5048651;28;20021;-75
2022/08/15 01:18:22;;;;;;;7.15;3.95;;;;;;;23.03;48.79;100184.84;5051071;28;20028;-75
2022/08/15 01:20:48;;;;;;;11.13;4.20;;;;;;;23.04;48.34;100185.66;5047800;28;20111;-76
2022/08/15 01:23:19;;;;;;;10.55;4.10;;;;;;;23.02;48.36;100183.19;5041079;28;20100;-74
2022/08/15 01:26:02;;;;;;;5.28;3.55;;;;;;;23.02;47.77;100193.09;5043340;28;20033;-81
2022/08/15 01:28:35;;;;;;;5.00;3.40;;;;;;;22.98;47.96;100192.72;5043351;28;20471;-81
2022/08/15 01:31:05;;;;;;;5.65;3.30;;;;;;;22.91;48.21;100186.53;5048431;28;20490;-82
2022/08/15 01:33:35;;;;;;;4.38;3.15;;;;;;;22.88;47.64;100186.97;5044980;28;20487;-81
2022/08/15 01:36:01;;;;;;;5.38;3.10;;;;;;;22.87;47.86;100185.31;5041744;28;20533;-74
2022/08/15 01:38:37;;;;;;;12.95;3.53;;;;;;;22.81;48.33;100183.44;5048014;28;20033;-81
2022/08/15 01:41:11;;;;;;;5.07;3.17;;;;;;;22.78;48.17;100186.50;5048050;28;20052;-74
2022/08/15 01:43:45;;;;;;;8.15;3.47;;;;;;;22.76;47.89;100191.25;5048834;28;20033;-81
2022/08/15 01:46:13;;;;;;;5.85;3.03;;;;;;;22.68;48.12;100189.63;5040918;28;20347;-75
2022/08/15 01:48:48;;;;;;;7.78;3.20;;;;;;;22.60;48.50;100197.88;5044540;28;20022;-75
2022/08/15 01:51:16;;;;;;;5.47;3.10;;;;;;;22.51;48.20;100202.66;5037952;28;20032;-82
2022/08/15 01:54:01;;;;;;;6.63;3.10;;;;;;;22.48;48.49;100203.06;5056708;28;20039;-81
2022/08/15 01:56:34;;;;;;;4.10;2.80;;;;;;;22.43;48.11;100192.13;5037718;28;20036;-74
2022/08/15 01:59:04;;;;;;;3.25;2.90;;;;;;;22.37;48.28;100192.13;5043929;28;20037;-80
2022/08/15 02:01:50;;;;;;;6.63;2.80;;;;;;;22.36;48.51;100188.59;5046268;28;20025;-82
2022/08/15 02:04:19;;;;;;;5.93;2.80;;;;;;;22.28;48.33;100188.00;5038477;28;20109;-81
2022/08/15 02:06:45;;;;;;;5.03;3.00;;;;;;;22.23;48.59;100188.63;5044644;28;20021;-82
2022/08/15 02:09:15;;;;;;;11.70;3.10;;;;;;;22.20;48.73;100195.22;5073300;28;20590;-82
2022/08/15 02:11:41;;;;;;;5.03;3.15;;;;;;;22.16;48.80;100188.63;5049593;28;20491;-75
2022/08/15 02:14:08;;;;;;;5.72;3.53;;;;;;;22.13;48.73;100190.88;5044599;28;20064;-75
2022/08/15 02:16:36;;;;;;;5.32;2.75;;;;;;;22.11;48.96;100196.44;5053944;28;20027;-75
2022/08/15 02:19:04;;;;;;;5.97;2.80;;;;;;;22.06;49.12;100195.41;5050304;28;20509;-82
2022/08/15 02:21:30;;;;;;;7.15;3.10;;;;;;;22.05;49.42;100191.91;5040452;28;20033;-82
2022/08/15 02:23:59;;;;;;;4.80;2.90;;;;;;;22.00;49.31;100188.13;5048760;28;20021;-81
2022/08/15 02:26:25;;;;;;;5.60;3.05;;;;;;;21.95;49.56;100195.97;5046398;28;20104;-75
2022/08/15 02:28:54;;;;;;;7.13;3.33;;;;;;;21.89;49.72;100193.06;5042245;28;20029;-81
2022/08/15 02:31:27;;;;;;;4.15;3.20;;;;;;;21.89;49.60;100192.25;5036604;28;20032;-81
2022/08/15 02:33:55;;;;;;;4.75;3.13;;;;;;;21.85;49.65;100181.09;5043260;28;20029;-82
2022/08/15 02:36:23;;;;;;;5.38;3.17;;;;;;;21.85;49.99;100180.28;5041488;28;20061;-82
2022/08/15 02:38:49;;;;;;;7.07;3.60;;;;;;;21.82;49.71;100186.88;5048876;28;20498;-81
2022/08/15 02:41:32;;;;;;;6.65;3.25;;;;;;;21.83;49.66;100187.69;5039740;28;20052;-73
2022/08/15 02:43:59;;;;;;;6.78;3.15;;;;;;;21.78;50.02;100191.00;5043803;28;20043;-81
2022/08/15 02:46:25;;;;;;;10.52;3.53;;;;;;;21.74;50.34;100199.63;5046119;28;20486;-81
2022/08/15 02:48:51;;;;;;;4.85;3.20;;;;;;;21.76;50.07;100202.94;5038595;28;20029;-81
2022/08/15 02:51:18;;;;;;;4.80;3.20;;;;;;;21.73;50.37;100198.81;5045435;28;20457;-74
2022/08/15 02:53:49;;;;;;;8.85;3.42;;;;;;;21.72;50.35;100205.19;5039162;28;20032;-81
2022/08/15 02:56:20;;;;;;;5.35;3.00;;;;;;;21.71;50.39;100200.03;5048240;28;20017;-82
2022/08/15 02:58:47;;;;;;;6.25;3.45;;;;;;;21.66;50.19;100197.13;5037890;28;20083;-74
2022/08/15 03:01:14;;;;;;;7.80;3.22;;;;;;;21.68;50.31;100193.22;5043986;28;20036;-81
2022/08/15 03:03:42;;;;;;;5.28;3.17;;;;;;;21.64;50.65;100192.00;5039683;28;20021;-74
2022/08/15 03:06:10;;;;;;;7.78;3.05;;;;;;;21.62;50.99;100196.72;5043215;28;20100;-81
2022/08/15 03:08:38;;;;;;;7.13;2.85;;;;;;;21.62;50.60;100201.25;5047488;28;20029;-82
2022/08/15 03:11:05;;;;;;;6.20;3.30;;;;;;;21.61;50.74;100207.59;5041837;28;20030;-73
2022/08/15 03:13:31;;;;;;;5.22;3.10;;;;;;;21.51;50.80;100208.00;5041730;28;20111;-81
2022/08/15 03:15:59;;;;;;;6.15;3.38;;;;;;;21.48;51.15;100208.38;5040035;28;20419;-81
2022/08/15 03:18:28;;;;;;;11.82;3.30;;;;;;;21.42;51.34;100211.88;5040218;28;20025;-81
2022/08/15 03:20:53;;;;;;;7.35;3.83;;;;;;;21.40;51.26;100208.56;5039488;28;20041;-81
2022/08/15 03:23:21;;;;;;;4.93;3.40;;;;;;;21.39;51.47;100202.38;5041257;28;20028;-80
2022/08/15 03:25:54;;;;;;;5.63;3.30;;;;;;;21.35;51.50;100200.31;5041660;28;20474;-81
2022/08/15 03:28:23;;;;;;;6.60;3.60;;;;;;;21.33;51.36;100202.38;5047789;28;20025;-81
2022/08/15 03:30:48;;;;;;;4.53;3.45;;;;;;;21.29;51.76;100206.47;5037816;28;20032;-81
2022/08/15 03:33:15;;;;;;;9.32;4.18;;;;;;;21.25;51.73;100204.19;5037363;28;20391;-82
2022/08/15 03:35:47;;;;;;;8.18;3.65;;;;;;;21.23;51.91;100214.28;5038266;28;20547;-83
2022/08/15 03:38:12;;;;;;;5.87;3.97;;;;;;;21.18;52.07;100203.28;5046505;28;20037;-80
2022/08/15 03:40:40;;;;;;;8.40;3.50;;;;;;;21.11;52.62;100205.09;5046491;28;20027;-81
2022/08/15 03:43:12;;;;;;;9.23;4.00;;;;;;;21.15;52.51;100206.34;5035431;28;20423;-81
2022/08/15 03:45:38;;;;;;;6.87;3.80;;;;;;;21.07;52.38;100198.50;5042638;28;20032;-81
2022/08/15 03:48:06;;;;;;;6.40;4.15;;;;;;;21.01;52.80;100204.63;5073004;28;20036;-81
2022/08/15 03:50:32;;;;;;;8.50;3.78;;;;;;;20.98;52.94;100206.88;5045398;28;20040;-81
2022/08/15 03:53:04;;;;;;;9.70;4.40;;;;;;;20.94;53.44;100220.66;5050603;28;20025;-80
2022/08/15 03:55:31;;;;;;;6.28;4.10;;;;;;;20.88;53.47;100221.44;5051139;28;20433;-82
2022/08/15 03:57:58;;;;;;;5.95;3.97;;;;;;;20.81;54.03;100220.56;5044567;28;20045;-82
2022/08/15 04:00:31;;;;;;;6.18;3.60;;;;;;;20.85;53.78;100215.66;5043037;28;20040;-81
2022/08/15 04:03:16;;;;;;;6.75;4.10;;;;;;;20.80;54.04;100223.41;5049748;28;20139;-81
2022/08/15 04:05:47;;;;;;;8.25;4.05;;;;;;;20.73;54.40;100217.19;5048782;28;20063;-81
2022/08/15 04:08:14;;;;;;;8.63;3.70;;;;;;;20.74;54.74;100213.50;5039943;28;20426;-81
2022/08/15 04:10:39;;;;;;;9.55;4.10;;;;;;;20.74;55.41;100210.81;5041096;28;20395;-80
2022/08/15 04:13:10;;;;;;;10.32;4.30;;;;;;;20.74;55.89;100203.63;5043388;28;20027;-81
2022/08/15 04:15:37;;;;;;;11.20;4.40;;;;;;;20.70;56.12;100202.38;5075953;28;20039;-82
2022/08/15 04:18:03;;;;;;;10.80;4.05;;;;;;;20.71;56.67;100211.22;5041475;28;20447;-81
2022/08/15 04:20:29;;;;;;;10.60;4.40;;;;;;;20.71;56.84;100209.38;5044819;28;20091;-81
2022/08/15 04:22:54;;;;;;;8.40;4.30;;;;;;;20.64;57.18;100214.66;5040373;28;20033;-81
2022/08/15 04:25:41;;;;;;;8.82;4.43;;;;;;;20.62;57.92;100219.38;5041927;28;20096;-82
2022/08/15 04:28:08;;;;;;;7.30;4.10;;;;;;;20.64;57.73;100220.00;5040001;28;20049;-82
2022/08/15 04:30:37;;;;;;;7.47;4.00;;;;;;;20.64;58.45;100220.00;5046742;28;20112;-75
2022/08/15 04:33:30;;;;;;;10.57;4.70;;;;;;;20.72;57.43;100221.72;5046443;28;20024;-82
2022/08/15 04:36:02;;;;;;;10.05;4.80;;;;;;;20.61;59.10;100219.56;5040730;28;20099;-82
2022/08/15 04:38:28;;;;;;;19.40;5.00;;;;;;;20.60;59.29;100213.41;5043610;28;20108;-74
2022/08/15 04:40:54;;;;;;;13.23;4.75;;;;;;;20.61;59.78;100217.72;5042779;28;20043;-74
2022/08/15 04:43:21;;;;;;;10.73;4.68;;;;;;;20.62;60.01;100215.88;5044062;28;20541;-73
2022/08/15 04:45:47;;;;;;;10.05;4.50;;;;;;;20.65;60.18;100220.84;5036321;28;20108;-74
2022/08/15 04:48:16;;;;;;;7.90;4.30;;;;;;;20.62;60.36;100218.56;5034480;28;20108;-74
2022/08/15 04:50:44;;;;;;;14.18;4.72;;;;;;;20.63;60.71;100221.03;5049712;28;20031;-74
2022/08/15 04:53:11;;;;;;;7.88;4.85;;;;;;;20.62;60.75;100219.38;5039150;28;20033;-74
2022/08/15 04:55:41;;;;;;;10.32;4.50;;;;;;;20.61;61.37;100215.06;5031759;28;20033;-74
2022/08/15 04:58:09;;;;;;;9.63;4.43;;;;;;;20.70;61.32;100222.94;5032940;28;20069;-74
2022/08/15 05:00:37;;;;;;;8.30;4.25;;;;;;;20.69;61.19;100221.28;5047228;28;20686;-74
2022/08/15 05:03:16;;;;;;;9.50;4.80;;;;;;;20.73;61.21;100228.72;5049626;28;20651;-74
2022/08/15 05:05:44;;;;;;;12.98;4.95;;;;;;;20.77;61.56;100229.16;5040975;28;20048;-74
2022/08/15 05:08:11;;;;;;;9.77;4.57;;;;;;;20.77;61.76;100226.47;5047231;28;20075;-81
2022/08/15 05:10:37;;;;;;;9.93;4.68;;;;;;;20.81;62.00;100217.03;5040366;28;20056;-81
2022/08/15 05:13:15;;;;;;;7.55;4.63;;;;;;;20.81;61.68;100225.91;5043627;28;20494;-81
2022/08/15 05:15:42;;;;;;;9.00;4.30;;;;;;;20.89;61.72;100216.91;5034334;28;20029;-82
2022/08/15 05:18:07;;;;;;;8.82;4.78;;;;;;;20.91;62.12;100241.59;5045556;28;20083;-81
2022/08/15 05:20:32;;;;;;;7.65;4.53;;;;;;;20.92;61.78;100232.56;5040611;28;20029;-80
2022/08/15 05:23:02;;;;;;;7.93;4.45;;;;;;;20.95;61.95;100240.19;5046295;28;20033;-81
2022/08/15 05:25:30;;;;;;;9.68;4.50;;;;;;;20.98;62.20;100239.81;5043780;28;20025;-81
2022/08/15 05:27:55;;;;;;;10.77;4.38;;;;;;;20.99;62.30;100246.81;5050091;28;20089;-81
2022/08/15 05:30:22;;;;;;;11.35;4.55;;;;;;;21.00;62.36;100255.66;5041183;28;20032;-81
2022/08/15 05:32:59;;;;;;;7.65;4.50;;;;;;;21.02;62.14;100250.94;5050381;28;20044;-81
2022/08/15 05:35:24;;;;;;;14.65;5.15;;;;;;;20.99;64.22;100254.00;5042432;28;20035;-81
2022/08/15 05:37:49;;;;;;;10.95;4.88;;;;;;;21.00;66.15;100255.66;5035029;28;20028;-82
2022/08/15 05:40:15;;;;;;;7.78;4.95;;;;;;;20.88;66.37;100252.69;5048604;28;20025;-82
2022/08/15 05:43:00;;;;;;;9.13;5.15;;;;;;;20.90;66.75;100256.00;5049743;28;20041;-82
2022/08/15 05:45:49;;;;;;;10.43;5.28;;;;;;;20.85;65.70;100259.25;5049643;28;20060;-74
2022/08/15 05:48:24;;;;;;;9.35;5.30;;;;;;;20.79;67.29;100253.84;5046756;28;20365;-74
2022/08/15 05:50:57;;;;;;;9.52;5.07;;;;;;;20.79;67.60;100259.19;5037425;28;20020;-74
2022/08/15 05:53:48;;;;;;;9.85;5.00;;;;;;;20.83;66.73;100265.84;5045413;28;20029;-82
2022/08/15 05:56:27;;;;;;;12.45;5.13;;;;;;;20.84;67.01;100267.47;5039035;28;20504;-74
2022/08/15 05:59:01;;;;;;;11.50;5.40;;;;;;;20.79;67.67;100264.53;5051921;28;20029;-81
2022/08/15 06:01:45;;;;;;;7.88;4.88;;;;;;;20.86;66.68;100263.59;5048919;28;21059;-82
2022/08/15 06:04:19;;;;;;;7.15;4.78;;;;;;;20.85;67.98;100263.78;5044530;28;20538;-75
2022/08/15 06:06:47;;;;;;;7.50;4.53;;;;;;;20.93;67.44;100269.81;5032281;28;20466;-75
2022/08/15 06:09:30;;;;;;;7.70;4.72;;;;;;;20.94;66.09;100267.97;5068501;28;20025;-75
2022/08/15 06:11:59;;;;;;;9.15;4.85;;;;;;;20.92;66.45;100264.66;5038016;28;20044;-75
2022/08/15 06:14:36;;;;;;;9.07;4.78;;;;;;;20.93;66.64;100271.66;5075357;28;20481;-74
2022/08/15 06:17:13;;;;;;;9.35;4.50;;;;;;;20.92;66.37;100265.47;5045848;28;20035;-75
2022/08/15 06:19:42;;;;;;;12.90;5.18;;;;;;;20.99;67.09;100265.53;5046155;28;20025;-75
2022/08/15 06:22:26;;;;;;;7.60;4.78;;;;;;;21.03;66.57;100269.47;5046712;28;20033;-74
2022/08/15 06:25:30;;;;;;;12.52;5.00;;;;;;;21.10;65.82;100278.34;5045628;28;20035;-73
2022/08/15 06:28:18;;;;;;;9.73;4.65;;;;;;;21.17;66.52;100273.88;5043762;28;20465;-74
2022/08/15 06:30:53;;;;;;;9.07;4.75;;;;;;;21.26;66.35;100269.25;5045444;28;20071;-74
2022/08/15 06:33:41;;;;;;;8.70;4.80;;;;;;;21.40;65.69;100267.44;5044365;28;20032;-75
2022/08/15 06:36:19;;;;;;;10.82;4.78;;;;;;;21.43;65.78;100267.88;5046109;28;20036;-81
2022/08/15 06:38:54;;;;;;;8.18;5.22;;;;;;;21.45;66.36;100265.84;5047300;28;20032;-82
2022/08/15 06:41:58;;;;;;;11.18;4.80;;;;;;;21.53;65.47;100270.19;5048408;28;20037;-82
2022/08/15 06:44:25;;;;;;;6.18;4.50;;;;;;;21.61;66.07;100258.47;5046956;28;20033;-81
2022/08/15 06:46:54;;;;;;;7.35;4.60;;;;;;;21.63;66.52;100265.31;5049788;28;20063;-80
2022/08/15 06:49:22;;;;;;;7.07;4.32;;;;;;;21.56;65.69;100261.75;5045511;28;20025;-81
2022/08/15 06:51:47;;;;;;;10.18;4.45;;;;;;;21.57;66.24;100274.13;5046065;28;20386;-81
2022/08/15 06:54:19;;;;;;;8.63;4.50;;;;;;;21.57;66.06;100276.78;5045661;28;20025;-80
2022/08/15 06:57:43;;;;;;;8.43;4.55;;;;;;;21.68;64.85;100275.41;5048712;28;20028;-81
2022/08/15 07:00:30;;;;;;;7.72;4.57;;;;;;;21.63;65.98;100283.22;4986029;28;20552;-81
2022/08/15 07:03:09;;;;;;;8.70;4.78;;;;;;;21.71;65.63;100283.06;4982719;28;20026;-82
2022/08/15 07:05:56;;;;;;;8.20;5.00;;;;;;;21.72;65.66;100277.50;5030717;28;20094;-82
2022/08/15 07:08:43;;;;;;;6.28;5.05;;;;;;;21.83;65.39;100276.09;5057426;28;20116;-81
2022/08/15 07:11:19;;;;;;;7.93;5.45;;;;;;;22.12;64.68;100266.94;5035918;28;20037;-81
2022/08/15 07:13:53;;;;;;;9.50;5.03;;;;;;;22.40;64.45;100264.91;5049395;28;20613;-81
2022/08/15 07:16:34;;;;;;;9.23;4.90;;;;;;;22.58;64.00;100260.81;5040535;28;20029;-81
2022/08/15 07:19:01;;;;;;;7.03;5.10;;;;;;;22.83;63.01;100258.38;5041223;28;20087;-81
2022/08/15 07:21:27;;;;;;;8.20;4.95;;;;;;;22.87;63.10;100255.06;5045746;28;20037;-75
2022/08/15 07:24:17;;;;;;;6.22;5.03;;;;;;;22.97;62.81;100266.19;5043017;28;20033;-75
2022/08/15 07:27:04;;;;;;;12.55;6.03;;;;;;;22.89;62.46;100258.38;5045017;28;20033;-83
2022/08/15 07:29:36;;;;;;;12.18;6.03;;;;;;;22.86;62.67;100264.16;5036339;28;21424;-82
2022/08/15 07:32:21;;;;;;;12.07;6.05;;;;;;;22.82;63.07;100268.28;5056684;28;20184;-83
2022/08/15 07:35:15;;;;;;;13.82;6.25;;;;;;;22.87;62.75;100265.78;5058659;28;20028;-82
2022/08/15 07:38:03;;;;;;;12.70;6.70;;;;;;;22.93;62.24;100269.50;5048829;28;20045;-83
2022/08/15 07:40:41;;;;;;;11.10;6.15;;;;;;;22.90;62.46;100259.19;5060191;28;20032;-83
2022/08/15 07:43:28;;;;;;;11.18;5.63;;;;;;;22.92;62.26;100266.00;5059508;28;20056;-83
2022/08/15 07:46:05;;;;;;;8.38;5.80;;;;;;;22.89;62.64;100257.53;5061719;28;20035;-82
2022/08/15 07:48:32;;;;;;;13.25;6.35;;;;;;;22.93;62.87;100262.28;5055967;28;20036;-83
2022/08/15 07:51:23;;;;;;;11.50;7.10;;;;;;;23.03;62.17;100275.25;5058594;28;20122;-82
2022/08/15 07:53:53;;;;;;;9.95;6.35;;;;;;;22.96;61.97;100267.22;5058776;28;20124;-82
2022/08/15 07:56:19;;;;;;;11.63;6.18;;;;;;;22.99;62.48;100268.66;5055303;28;20056;-82
2022/08/15 07:58:44;;;;;;;9.52;5.85;;;;;;;23.09;62.81;100269.88;5059862;28;20056;-82
2022/08/15 08:01:14;;;;;;;9.52;5.90;;;;;;;23.19;62.03;100284.72;5051909;28;20032;-81
2022/08/15 08:03:45;;;;;;;12.48;6.57;;;;;;;23.14;61.78;100288.03;5051436;28;20025;-82
2022/08/15 08:06:37;;;;;;;9.88;6.03;;;;;;;23.22;61.63;100281.66;5052654;28;20082;-75
2022/08/15 08:09:29;;;;;;;15.10;6.45;;;;;;;23.25;61.81;100281.22;5045428;28;20025;-74
2022/08/15 08:12:05;;;;;;;8.20;5.63;;;;;;;23.35;61.05;100276.25;5039860;28;20418;-75
2022/08/15 08:14:45;;;;;;;8.15;5.60;;;;;;;23.50;61.05;100284.84;5052716;28;20031;-75
2022/08/15 08:17:16;;;;;;;9.63;6.03;;;;;;;23.53;61.09;100283.59;5064268;28;20033;-74
2022/08/15 08:20:22;;;;;;;11.40;5.13;;;;;;;23.73;60.35;100285.22;5050184;28;20040;-75
2022/08/15 08:23:01;;;;;;;10.73;5.80;;;;;;;23.79;60.42;100291.63;5049239;28;20025;-75
2022/08/15 08:25:33;;;;;;;12.02;5.40;;;;;;;23.83;60.37;100281.25;5063394;28;20021;-75
2022/08/15 08:28:06;;;;;;;10.85;5.82;;;;;;;23.79;60.29;100288.09;5046960;28;20029;-74
2022/08/15 08:30:59;;;;;;;7.97;5.65;;;;;;;23.73;59.80;100304.03;5036793;28;20471;-74
2022/08/15 08:33:43;;;;;;;10.02;5.53;;;;;;;23.72;60.12;100288.97;5031509;28;20025;-73
2022/08/15 08:36:29;;;;;;;6.88;5.00;;;;;;;23.68;60.48;100295.78;5030404;28;20017;-74
2022/08/15 08:39:16;;;;;;;7.45;5.32;;;;;;;23.60;60.70;100297.88;5037137;28;20394;-74
2022/08/15 08:41:48;;;;;;;8.77;5.05;;;;;;;23.55;61.00;100293.13;5051710;28;20136;-74
2022/08/15 08:44:33;;;;;;;9.18;5.30;;;;;;;23.57;61.20;100299.13;5049854;28;20044;-74
2022/08/15 08:47:27;;;;;;;7.60;5.55;;;;;;;23.42;61.31;100296.66;5043157;28;20116;-81
2022/08/15 08:50:11;;;;;;;8.23;5.70;;;;;;;23.32;61.46;100290.91;5048775;28;20025;-81
2022/08/15 08:53:03;;;;;;;8.18;5.65;;;;;;;23.24;62.21;100295.69;5049097;28;20051;-82
2022/08/15 08:55:50;;;;;;;7.90;6.40;;;;;;;23.27;61.55;100292.56;5051110;28;20021;-82
2022/08/15 08:58:23;;;;;;;12.98;5.95;;;;;;;23.19;62.55;100290.09;5032145;28;20189;-81
2022/08/15 09:00:50;;;;;;;10.25;6.00;;;;;;;23.09;62.38;100296.72;5049992;28;20126;-81
2022/08/15 09:03:26;;;;;;;10.18;5.68;;;;;;;23.08;62.94;100300.44;5042487;28;20020;-82
2022/08/15 09:05:56;;;;;;;9.13;5.70;;;;;;;23.06;63.04;100297.13;5051548;28;20040;-82
2022/08/15 09:08:36;;;;;;;8.00;5.78;;;;;;;23.07;62.96;100304.16;5039775;28;20032;-81
2022/08/15 09:11:09;;;;;;;8.18;5.85;;;;;;;23.02;63.29;100306.63;5050844;28;20401;-81
2022/08/15 09:13:39;;;;;;;10.85;5.97;;;;;;;23.07;63.20;100312.22;5050861;28;20470;-82
2022/08/15 09:16:17;;;;;;;8.40;6.25;;;;;;;23.05;63.29;100314.28;5042801;28;20028;-81
2022/08/15 09:18:52;;;;;;;9.13;5.68;;;;;;;23.10;63.63;100317.16;5043329;28;20047;-81
2022/08/15 09:21:18;;;;;;;10.85;5.90;;;;;;;23.11;63.50;100312.63;5039237;28;20025;-81
2022/08/15 09:23:45;;;;;;;10.02;5.97;;;;;;;23.26;63.66;100315.09;5047329;28;20167;-82
2022/08/15 09:26:24;;;;;;;11.60;6.50;;;;;;;23.40;63.38;100320.22;5034838;28;20053;-81
2022/08/15 09:29:13;;;;;;;12.77;6.25;;;;;;;23.52;62.74;100315.00;5050121;28;20032;-82
2022/08/15 09:31:41;;;;;;;13.63;7.10;;;;;;;23.58;62.13;100314.19;5042225;28;20029;-81
2022/08/15 09:34:40;;;;;;;12.85;6.82;;;;;;;23.57;62.06;100315.22;5042174;28;20107;-74
2022/08/15 09:37:38;;;;;;;10.18;7.13;;;;;;;23.56;61.85;100318.97;5043589;28;20093;-74
2022/08/15 09:40:06;;;;;;;10.90;6.95;;;;;;;23.65;62.55;100320.41;5048113;28;20021;-82
2022/08/15 09:42:59;;;;;;;10.05;6.70;;;;;;;23.63;62.25;100314.41;5047994;28;20080;-81
2022/08/15 09:45:58;;;;;;;6.72;5.82;;;;;;;23.79;62.22;100312.28;5068276;28;20086;-81
2022/08/15 09:48:50;;;;;;;9.23;7.03;;;;;;;23.83;61.56;100316.19;5041982;28;20098;-83
2022/08/15 09:51:25;;;;;;;9.18;6.80;;;;;;;23.92;61.43;100309.53;5045715;28;20029;-82
2022/08/15 09:54:16;;;;;;;12.95;6.90;;;;;;;24.04;61.68;100313.22;5079315;28;20033;-81
2022/08/15 09:56:43;;;;;;;12.65;7.43;;;;;;;24.09;61.35;100308.03;5048325;28;20029;-81
2022/08/15 09:59:21;;;;;;;16.60;7.80;;;;;;;24.06;61.17;100313.81;5048464;28;20490;-80
2022/08/15 10:01:59;;;;;;;10.35;6.50;;;;;;;24.19;61.28;100313.75;5039643;28;20029;-82
2022/08/15 10:05:02;;;;;;;8.93;7.53;;;;;;;24.37;59.95;100321.09;5034237;28;20497;-82
2022/08/15 10:07:43;;;;;;;8.95;7.90;;;;;;;24.33;60.05;100323.41;5051015;28;20402;-82
2022/08/15 10:10:36;;;;;;;14.27;7.50;;;;;;;24.34;59.90;100314.28;5049303;28;20031;-81
2022/08/15 10:13:07;;;;;;;;;;;;;;;24.49;60.01;100307.81;5048377;28;20418;-81
2022/08/15 10:15:44;;;;;;;9.88;6.40;;;;;;;24.60;60.35;100304.41;5045646;28;19920;-81
2022/08/15 10:18:38;;;;;;;12.02;6.43;;;;;;;24.71;59.67;100311.75;5039009;28;20479;-81
2022/08/15 10:21:39;;;;;;;10.60;7.22;;;;;;;24.75;58.58;100307.59;5049152;28;20032;-82
2022/08/15 10:24:26;;;;;;;12.27;6.20;;;;;;;24.67;58.94;100313.25;5037399;28;20064;-81
2022/08/15 10:27:12;;;;;;;9.23;6.18;;;;;;;24.63;59.21;100312.03;5038629;28;20065;-82
2022/08/15 10:29:48;;;;;;;9.70;6.00;;;;;;;24.61;59.86;100306.88;5066422;28;20506;-82
2022/08/15 10:32:31;;;;;;;9.65;5.80;;;;;;;24.64;59.31;100311.81;5039423;28;20032;-81
2022/08/15 10:35:12;;;;;;;;;;;;;;;24.84;58.88;100310.84;5051005;28;20090;-81
2022/08/15 10:37:51;;;;;;;10.75;5.88;;;;;;;24.74;58.24;100311.31;5041090;28;19971;-81
2022/08/15 10:40:36;;;;;;;12.57;6.00;;;;;;;24.71;58.79;100316.31;5051255;28;20033;-80
2022/08/15 10:43:29;;;;;;;11.35;5.85;;;;;;;24.73;59.16;100315.06;5051013;28;20041;-81
2022/08/15 10:46:00;;;;;;;14.98;6.20;;;;;;;24.64;59.04;100324.44;5043358;28;20033;-80
2022/08/15 10:49:09;;;;;;;9.18;5.40;;;;;;;24.65;58.74;100324.22;5044297;28;20021;-80
2022/08/15 10:51:46;;;;;;;8.50;5.50;;;;;;;24.64;59.55;100321.75;5027670;28;20033;-82
2022/08/15 10:54:36;;;;;;;15.07;5.93;;;;;;;24.70;59.40;100320.88;5042349;28;20056;-81
2022/08/15 10:57:06;;;;;;;19.10;6.68;;;;;;;24.58;59.17;100323.47;5036009;28;20514;-81
2022/08/15 10:59:41;;;;;;;13.85;5.55;;;;;;;24.60;59.14;100328.63;5034571;28;20538;-81
2022/08/15 11:02:18;;;;;;;8.68;5.00;;;;;;;24.56;59.33;100330.09;5046257;28;20040;-80
2022/08/15 11:04:44;;;;;;;6.93;5.30;;;;;;;24.50;58.85;100330.97;5041787;28;20017;-81
2022/08/15 11:07:37;;;;;;;9.48;5.07;;;;;;;24.56;58.99;100322.84;5046725;28;20025;-82
2022/08/15 11:10:13;;;;;;;9.30;5.30;;;;;;;24.43;58.72;100330.19;5047537;28;20037;-82
2022/08/15 11:12:43;;;;;;;9.32;5.50;;;;;;;24.37;59.38;100335.38;5036848;28;20056;-80
2022/08/15 11:15:21;;;;;;;8.15;5.78;;;;;;;24.34;59.26;100338.50;5072941;28;20029;-81
2022/08/15 11:17:53;;;;;;;7.43;5.63;;;;;;;24.31;59.81;100330.03;5033553;28;20021;-80
2022/08/15 11:20:24;;;;;;;10.20;5.47;;;;;;;24.33;60.57;100333.34;5040487;28;20049;-81
2022/08/15 11:22:59;;;;;;;6.93;5.57;;;;;;;24.36;59.49;100330.22;5041624;28;20051;-81
2022/08/15 11:25:29;;;;;;;9.75;5.63;;;;;;;24.30;59.22;100326.53;5042407;28;20029;-81
2022/08/15 11:28:24;;;;;;;14.30;5.90;;;;;;;24.36;58.91;100324.84;5044711;28;20035;-81
2022/08/15 11:31:02;;;;;;;11.55;6.35;;;;;;;24.38;58.77;100326.25;5034468;28;20435;-81
2022/08/15 11:33:40;;;;;;;11.45;5.22;;;;;;;24.43;58.82;100331.03;5043185;28;20021;-80
2022/08/15 11:36:07;;;;;;;9.95;5.88;;;;;;;24.45;58.62;100317.34;5030590;28;20383;-80
2022/08/15 11:38:36;;;;;;;15.10;5.90;;;;;;;24.50;58.40;100320.22;5045468;28;20055;-82
2022/08/15 11:41:02;;;;;;;8.60;5.80;;;;;;;24.56;58.61;100316.66;5038989;28;20022;-84
2022/08/15 11:43:28;;;;;;;9.13;5.85;;;;;;;24.71;58.44;100322.53;5052832;28;20035;-81
2022/08/15 11:45:56;;;;;;;9.60;5.40;;;;;;;24.81;57.57;100325.56;5039609;28;20025;-81
2022/08/15 11:48:27;;;;;;;11.15;5.88;;;;;;;24.89;57.13;100322.63;5036418;28;20108;-82
2022/08/15 11:51:00;;;;;;;8.43;5.30;;;;;;;24.97;57.96;100325.03;5043011;28;20052;-82
2022/08/15 11:53:30;;;;;;;8.73;5.18;;;;;;;25.08;57.53;100322.69;5037554;28;20075;-82
2022/08/15 11:55:55;;;;;;;11.93;5.32;;;;;;;25.12;56.65;100323.88;5045440;28;20390;-81
2022/08/15 11:58:34;;;;;;;9.50;5.50;;;;;;;25.12;56.44;100323.88;5042923;28;20036;-81